sensor_id;sensor_type;location;lat;lon;timestamp;temperature;humidity
20740;DHT22;10530;49.968;19.844;2023-04-23T00:01:28;6.50;99.90
20740;DHT22;10530;49.968;19.844;2023-04-23T00:06:32;6.60;99.90
20740;DHT22;10530;49.968;19.844;2023-04-23T00:11:35;6.60;99.90
20740;DHT22;10530;49.968;19.844;2023-04-23T00:16:38;6.70;99.90
20740;DHT22;10530;49.968;19.844;2023-04-23T00:21:42;6.70;99.90
20740;DHT22;10530;49.968;19.844;2023-04-23T00:26:45;6.60;99.90
20740;DHT22;10530;49.968;19.844;2023-04-23T00:31:48;6.30;99.90
20740;DHT22;10530;49.968;19.844;2023-04-23T00:36:51;6.20;99.90
20740;DHT22;10530;49.968;19.844;2023-04-23T00:41:54;6.10;99.90
20740;DHT22;10530;49.968;19.844;2023-04-23T00:46:57;5.80;99.90
20740;DHT22;10530;49.968;19.844;2023-04-23T00:52:00;5.80;99.90
20740;DHT22;10530;49.968;19.844;2023-04-23T00:57:03;5.80;99.90
20740;DHT22;10530;49.968;19.844;2023-04-23T01:02:06;5.60;99.90
20740;DHT22;10530;49.968;19.844;2023-04-23T01:07:11;5.60;99.90
20740;DHT22;10530;49.968;19.844;2023-04-23T01:12:14;5.60;99.90
20740;DHT22;10530;49.968;19.844;2023-04-23T01:17:18;5.50;99.90
20740;DHT22;10530;49.968;19.844;2023-04-23T01:22:21;5.40;99.90
20740;DHT22;10530;49.968;19.844;2023-04-23T01:27:23;5.40;99.90
20740;DHT22;10530;49.968;19.844;2023-04-23T01:32:26;5.40;99.90
20740;DHT22;10530;49.968;19.844;2023-04-23T01:37:29;5.40;99.90
20740;DHT22;10530;49.968;19.844;2023-04-23T01:42:33;5.30;99.90
20740;DHT22;10530;49.968;19.844;2023-04-23T01:47:36;5.20;99.90
20740;DHT22;10530;49.968;19.844;2023-04-23T01:52:38;5.10;99.90
20740;DHT22;10530;49.968;19.844;2023-04-23T01:57:42;5.10;99.90
20740;DHT22;10530;49.968;19.844;2023-04-23T02:02:45;5.10;99.90
20740;DHT22;10530;49.968;19.844;2023-04-23T02:07:50;5.10;99.90
20740;DHT22;10530;49.968;19.844;2023-04-23T02:12:53;5.00;99.90
20740;DHT22;10530;49.968;19.844;2023-04-23T02:17:56;4.90;99.90
20740;DHT22;10530;49.968;19.844;2023-04-23T02:22:59;4.80;99.90
20740;DHT22;10530;49.968;19.844;2023-04-23T02:28:03;4.80;99.90
20740;DHT22;10530;49.968;19.844;2023-04-23T02:33:08;4.70;99.90
20740;DHT22;10530;49.968;19.844;2023-04-23T02:38:10;4.70;99.90
20740;DHT22;10530;49.968;19.844;2023-04-23T02:43:13;4.50;99.90
20740;DHT22;10530;49.968;19.844;2023-04-23T02:48:16;4.60;99.90
20740;DHT22;10530;49.968;19.844;2023-04-23T02:53:19;4.70;99.90
20740;DHT22;10530;49.968;19.844;2023-04-23T02:58:22;4.50;99.90
20740;DHT22;10530;49.968;19.844;2023-04-23T03:03:28;4.50;99.90
20740;DHT22;10530;49.968;19.844;2023-04-23T03:08:35;4.60;99.90
20740;DHT22;10530;49.968;19.844;2023-04-23T03:13:38;4.40;99.90
20740;DHT22;10530;49.968;19.844;2023-04-23T03:18:40;4.50;99.90
20740;DHT22;10530;49.968;19.844;2023-04-23T03:23:44;4.40;99.90
20740;DHT22;10530;49.968;19.844;2023-04-23T03:28:46;4.30;99.90
20740;DHT22;10530;49.968;19.844;2023-04-23T03:33:49;4.30;99.90
20740;DHT22;10530;49.968;19.844;2023-04-23T03:38:58;4.20;99.90
20740;DHT22;10530;49.968;19.844;2023-04-23T03:44:07;4.30;99.90
20740;DHT22;10530;49.968;19.844;2023-04-23T03:49:15;4.30;99.90
20740;DHT22;10530;49.968;19.844;2023-04-23T03:54:19;4.20;99.90
20740;DHT22;10530;49.968;19.844;2023-04-23T03:59:51;4.20;99.90
20740;DHT22;10530;49.968;19.844;2023-04-23T04:04:53;4.20;99.90
20740;DHT22;10530;49.968;19.844;2023-04-23T04:09:58;4.40;99.90
20740;DHT22;10530;49.968;19.844;2023-04-23T04:15:04;4.40;99.90
20740;DHT22;10530;49.968;19.844;2023-04-23T04:20:08;4.50;99.90
20740;DHT22;10530;49.968;19.844;2023-04-23T04:25:11;4.50;99.90
20740;DHT22;10530;49.968;19.844;2023-04-23T04:30:14;4.70;99.90
20740;DHT22;10530;49.968;19.844;2023-04-23T04:35:17;4.90;99.90
20740;DHT22;10530;49.968;19.844;2023-04-23T04:40:20;5.10;99.90
20740;DHT22;10530;49.968;19.844;2023-04-23T04:45:23;5.30;99.90
20740;DHT22;10530;49.968;19.844;2023-04-23T04:50:27;5.60;99.90
20740;DHT22;10530;49.968;19.844;2023-04-23T04:55:30;5.90;99.90
20740;DHT22;10530;49.968;19.844;2023-04-23T05:00:33;6.10;99.90
20740;DHT22;10530;49.968;19.844;2023-04-23T05:05:35;6.50;99.90
20740;DHT22;10530;49.968;19.844;2023-04-23T05:10:38;7.10;99.90
20740;DHT22;10530;49.968;19.844;2023-04-23T05:15:41;7.50;99.90
20740;DHT22;10530;49.968;19.844;2023-04-23T05:20:44;8.00;99.90
20740;DHT22;10530;49.968;19.844;2023-04-23T05:25:47;8.50;99.90
20740;DHT22;10530;49.968;19.844;2023-04-23T05:30:52;9.00;99.90
20740;DHT22;10530;49.968;19.844;2023-04-23T05:35:55;9.70;99.90
20740;DHT22;10530;49.968;19.844;2023-04-23T05:40:58;10.50;99.90
20740;DHT22;10530;49.968;19.844;2023-04-23T05:46:01;11.10;99.90
20740;DHT22;10530;49.968;19.844;2023-04-23T05:51:06;11.80;99.90
20740;DHT22;10530;49.968;19.844;2023-04-23T05:56:08;12.40;99.90
20740;DHT22;10530;49.968;19.844;2023-04-23T06:01:11;12.40;99.90
20740;DHT22;10530;49.968;19.844;2023-04-23T06:06:14;12.40;99.90
20740;DHT22;10530;49.968;19.844;2023-04-23T06:11:17;12.50;99.90
20740;DHT22;10530;49.968;19.844;2023-04-23T06:16:20;12.20;99.90
20740;DHT22;10530;49.968;19.844;2023-04-23T06:21:22;12.10;99.90
20740;DHT22;10530;49.968;19.844;2023-04-23T06:26:25;12.30;99.90
20740;DHT22;10530;49.968;19.844;2023-04-23T06:31:33;12.50;99.90
20740;DHT22;10530;49.968;19.844;2023-04-23T06:36:36;13.20;99.90
20740;DHT22;10530;49.968;19.844;2023-04-23T06:41:39;13.80;99.90
20740;DHT22;10530;49.968;19.844;2023-04-23T06:46:53;14.40;99.90
20740;DHT22;10530;49.968;19.844;2023-04-23T06:51:57;14.90;99.90
20740;DHT22;10530;49.968;19.844;2023-04-23T06:56:59;15.30;99.90
20740;DHT22;10530;49.968;19.844;2023-04-23T07:02:02;15.60;99.90
20740;DHT22;10530;49.968;19.844;2023-04-23T07:07:05;16.10;98.40
20740;DHT22;10530;49.968;19.844;2023-04-23T07:12:08;16.40;95.20
20740;DHT22;10530;49.968;19.844;2023-04-23T07:17:11;16.70;92.70
20740;DHT22;10530;49.968;19.844;2023-04-23T07:22:14;16.90;76.90
20740;DHT22;10530;49.968;19.844;2023-04-23T07:27:18;17.20;70.40
20740;DHT22;10530;49.968;19.844;2023-04-23T07:32:20;17.30;69.50
20740;DHT22;10530;49.968;19.844;2023-04-23T07:37:27;17.40;68.00
20740;DHT22;10530;49.968;19.844;2023-04-23T07:42:30;17.70;60.90
20740;DHT22;10530;49.968;19.844;2023-04-23T07:47:33;18.10;61.20
20740;DHT22;10530;49.968;19.844;2023-04-23T07:52:36;18.60;53.80
20740;DHT22;10530;49.968;19.844;2023-04-23T07:57:39;19.20;48.60
20740;DHT22;10530;49.968;19.844;2023-04-23T08:02:42;19.60;47.40
20740;DHT22;10530;49.968;19.844;2023-04-23T08:07:44;20.30;41.70
20740;DHT22;10530;49.968;19.844;2023-04-23T08:12:47;21.00;38.20
20740;DHT22;10530;49.968;19.844;2023-04-23T08:17:50;21.60;30.40
20740;DHT22;10530;49.968;19.844;2023-04-23T08:22:53;21.80;24.40
20740;DHT22;10530;49.968;19.844;2023-04-23T08:27:57;22.40;23.20
20740;DHT22;10530;49.968;19.844;2023-04-23T08:33:00;22.60;20.50
20740;DHT22;10530;49.968;19.844;2023-04-23T08:38:03;22.70;17.60
20740;DHT22;10530;49.968;19.844;2023-04-23T08:43:15;23.50;17.30
20740;DHT22;10530;49.968;19.844;2023-04-23T08:48:18;20.80;15.20
20740;DHT22;10530;49.968;19.844;2023-04-23T08:53:25;21.70;14.90
20740;DHT22;10530;49.968;19.844;2023-04-23T08:58:29;21.70;12.50
20740;DHT22;10530;49.968;19.844;2023-04-23T09:03:33;24.00;14.60
20740;DHT22;10530;49.968;19.844;2023-04-23T09:08:37;22.80;6.70
20740;DHT22;10530;49.968;19.844;2023-04-23T09:13:40;24.70;7.00
20740;DHT22;10530;49.968;19.844;2023-04-23T09:18:43;23.90;6.50
20740;DHT22;10530;49.968;19.844;2023-04-23T09:23:50;23.90;4.10
20740;DHT22;10530;49.968;19.844;2023-04-23T09:28:53;23.80;6.60
20740;DHT22;10530;49.968;19.844;2023-04-23T09:33:56;24.30;5.90
20740;DHT22;10530;49.968;19.844;2023-04-23T09:38:59;23.50;3.20
20740;DHT22;10530;49.968;19.844;2023-04-23T09:44:02;23.60;3.50
20740;DHT22;10530;49.968;19.844;2023-04-23T09:49:06;25.70;2.40
20740;DHT22;10530;49.968;19.844;2023-04-23T09:59:29;24.10;1.00
20740;DHT22;10530;49.968;19.844;2023-04-23T10:04:35;25.20;1.60
20740;DHT22;10530;49.968;19.844;2023-04-23T10:09:39;26.30;1.20
20740;DHT22;10530;49.968;19.844;2023-04-23T10:14:45;25.90;1.00
20740;DHT22;10530;49.968;19.844;2023-04-23T10:19:49;24.20;1.00
20740;DHT22;10530;49.968;19.844;2023-04-23T10:24:54;25.90;1.00
20740;DHT22;10530;49.968;19.844;2023-04-23T10:30:00;24.50;2.80
20740;DHT22;10530;49.968;19.844;2023-04-23T10:35:07;24.40;1.00
20740;DHT22;10530;49.968;19.844;2023-04-23T10:40:13;25.20;1.00
20740;DHT22;10530;49.968;19.844;2023-04-23T10:45:18;25.70;1.00
20740;DHT22;10530;49.968;19.844;2023-04-23T10:50:28;24.10;1.00
20740;DHT22;10530;49.968;19.844;2023-04-23T10:55:31;25.60;1.00
20740;DHT22;10530;49.968;19.844;2023-04-23T11:00:44;26.60;1.00
20740;DHT22;10530;49.968;19.844;2023-04-23T11:05:48;23.80;1.00
20740;DHT22;10530;49.968;19.844;2023-04-23T11:10:56;24.30;3.10
20740;DHT22;10530;49.968;19.844;2023-04-23T11:16:22;25.80;1.00
20740;DHT22;10530;49.968;19.844;2023-04-23T11:27:07;25.00;1.00
20740;DHT22;10530;49.968;19.844;2023-04-23T11:32:11;25.70;1.10
20740;DHT22;10530;49.968;19.844;2023-04-23T11:37:16;25.60;1.00
20740;DHT22;10530;49.968;19.844;2023-04-23T11:42:19;25.20;1.00
20740;DHT22;10530;49.968;19.844;2023-04-23T11:47:25;24.70;1.00
20740;DHT22;10530;49.968;19.844;2023-04-23T11:52:28;27.10;1.00
20740;DHT22;10530;49.968;19.844;2023-04-23T11:57:34;28.30;1.00
20740;DHT22;10530;49.968;19.844;2023-04-23T12:02:37;26.90;1.00
20740;DHT22;10530;49.968;19.844;2023-04-23T12:07:40;25.20;1.00
20740;DHT22;10530;49.968;19.844;2023-04-23T12:12:43;24.30;1.00
20740;DHT22;10530;49.968;19.844;2023-04-23T12:18:08;24.10;1.30
20740;DHT22;10530;49.968;19.844;2023-04-23T12:23:11;26.80;1.00
20740;DHT22;10530;49.968;19.844;2023-04-23T12:28:14;25.90;1.00
20740;DHT22;10530;49.968;19.844;2023-04-23T12:33:17;26.40;1.10
20740;DHT22;10530;49.968;19.844;2023-04-23T12:38:22;26.20;1.00
20740;DHT22;10530;49.968;19.844;2023-04-23T12:43:25;24.90;1.00
20740;DHT22;10530;49.968;19.844;2023-04-23T12:48:29;25.30;1.00
20740;DHT22;10530;49.968;19.844;2023-04-23T12:53:32;25.90;1.60
20740;DHT22;10530;49.968;19.844;2023-04-23T12:58:34;27.00;1.00
20740;DHT22;10530;49.968;19.844;2023-04-23T13:03:37;27.10;1.00
20740;DHT22;10530;49.968;19.844;2023-04-23T13:08:40;25.60;1.00
20740;DHT22;10530;49.968;19.844;2023-04-23T13:13:43;25.30;1.00
20740;DHT22;10530;49.968;19.844;2023-04-23T13:18:46;25.90;1.00
20740;DHT22;10530;49.968;19.844;2023-04-23T13:23:49;25.30;1.00
20740;DHT22;10530;49.968;19.844;2023-04-23T13:28:52;26.90;1.00
20740;DHT22;10530;49.968;19.844;2023-04-23T13:33:55;26.50;1.00
20740;DHT22;10530;49.968;19.844;2023-04-23T13:38:58;25.70;1.00
20740;DHT22;10530;49.968;19.844;2023-04-23T13:44:00;24.10;1.00
20740;DHT22;10530;49.968;19.844;2023-04-23T13:49:03;24.80;1.00
20740;DHT22;10530;49.968;19.844;2023-04-23T13:54:06;26.00;1.00
20740;DHT22;10530;49.968;19.844;2023-04-23T13:59:08;25.90;1.00
20740;DHT22;10530;49.968;19.844;2023-04-23T14:04:20;26.60;1.00
20740;DHT22;10530;49.968;19.844;2023-04-23T14:09:26;26.40;1.00
20740;DHT22;10530;49.968;19.844;2023-04-23T14:14:31;26.20;1.00
20740;DHT22;10530;49.968;19.844;2023-04-23T14:19:34;26.00;1.00
20740;DHT22;10530;49.968;19.844;2023-04-23T14:24:44;26.80;1.00
20740;DHT22;10530;49.968;19.844;2023-04-23T14:29:56;27.10;1.00
20740;DHT22;10530;49.968;19.844;2023-04-23T14:34:59;25.90;1.00
20740;DHT22;10530;49.968;19.844;2023-04-23T14:40:02;24.70;1.00
20740;DHT22;10530;49.968;19.844;2023-04-23T14:45:06;23.80;1.00
20740;DHT22;10530;49.968;19.844;2023-04-23T14:50:09;24.20;1.00
20740;DHT22;10530;49.968;19.844;2023-04-23T14:55:12;24.30;1.00
20740;DHT22;10530;49.968;19.844;2023-04-23T15:00:16;24.90;1.00
20740;DHT22;10530;49.968;19.844;2023-04-23T15:05:19;25.70;1.00
20740;DHT22;10530;49.968;19.844;2023-04-23T15:10:21;24.50;1.00
20740;DHT22;10530;49.968;19.844;2023-04-23T15:20:44;23.30;1.00
20740;DHT22;10530;49.968;19.844;2023-04-23T15:25:51;23.50;1.00
20740;DHT22;10530;49.968;19.844;2023-04-23T15:30:54;23.60;1.00
20740;DHT22;10530;49.968;19.844;2023-04-23T15:35:57;23.70;1.00
20740;DHT22;10530;49.968;19.844;2023-04-23T15:41:01;22.90;1.00
20740;DHT22;10530;49.968;19.844;2023-04-23T15:46:04;22.70;1.00
20740;DHT22;10530;49.968;19.844;2023-04-23T15:51:07;22.80;1.70
20740;DHT22;10530;49.968;19.844;2023-04-23T15:56:11;23.10;3.60
20740;DHT22;10530;49.968;19.844;2023-04-23T16:01:14;22.70;1.70
20740;DHT22;10530;49.968;19.844;2023-04-23T16:06:18;22.50;1.40
20740;DHT22;10530;49.968;19.844;2023-04-23T16:11:21;22.10;6.20
20740;DHT22;10530;49.968;19.844;2023-04-23T16:16:24;21.70;4.70
20740;DHT22;10530;49.968;19.844;2023-04-23T16:21:27;21.60;4.20
20740;DHT22;10530;49.968;19.844;2023-04-23T16:26:30;21.60;6.60
20740;DHT22;10530;49.968;19.844;2023-04-23T16:31:33;21.30;12.90
20740;DHT22;10530;49.968;19.844;2023-04-23T16:36:36;21.10;14.90
20740;DHT22;10530;49.968;19.844;2023-04-23T16:41:39;20.70;12.70
20740;DHT22;10530;49.968;19.844;2023-04-23T16:46:42;20.30;15.50
20740;DHT22;10530;49.968;19.844;2023-04-23T16:51:46;19.80;22.00
20740;DHT22;10530;49.968;19.844;2023-04-23T16:56:53;19.40;21.00
20740;DHT22;10530;49.968;19.844;2023-04-23T17:01:56;19.30;14.40
20740;DHT22;10530;49.968;19.844;2023-04-23T17:06:59;19.00;13.40
20740;DHT22;10530;49.968;19.844;2023-04-23T17:12:02;18.80;15.50
20740;DHT22;10530;49.968;19.844;2023-04-23T17:17:05;18.40;18.00
20740;DHT22;10530;49.968;19.844;2023-04-23T17:22:08;18.10;23.20
20740;DHT22;10530;49.968;19.844;2023-04-23T17:27:12;17.90;20.20
20740;DHT22;10530;49.968;19.844;2023-04-23T17:32:15;17.80;20.00
20740;DHT22;10530;49.968;19.844;2023-04-23T17:37:18;17.70;18.70
20740;DHT22;10530;49.968;19.844;2023-04-23T17:42:21;17.80;18.60
20740;DHT22;10530;49.968;19.844;2023-04-23T17:47:23;17.80;17.40
20740;DHT22;10530;49.968;19.844;2023-04-23T17:52:27;17.80;17.50
20740;DHT22;10530;49.968;19.844;2023-04-23T17:57:30;17.70;17.00
20740;DHT22;10530;49.968;19.844;2023-04-23T18:02:33;17.70;17.90
20740;DHT22;10530;49.968;19.844;2023-04-23T18:07:42;17.70;16.40
20740;DHT22;10530;49.968;19.844;2023-04-23T18:12:45;17.60;18.00
20740;DHT22;10530;49.968;19.844;2023-04-23T18:17:48;17.70;15.50
20740;DHT22;10530;49.968;19.844;2023-04-23T18:22:52;17.60;17.00
20740;DHT22;10530;49.968;19.844;2023-04-23T18:27:55;17.60;15.60
20740;DHT22;10530;49.968;19.844;2023-04-23T18:38:38;17.40;17.50
20740;DHT22;10530;49.968;19.844;2023-04-23T18:43:44;17.40;17.40
20740;DHT22;10530;49.968;19.844;2023-04-23T18:48:58;17.30;18.00
20740;DHT22;10530;49.968;19.844;2023-04-23T18:54:02;17.20;17.60
20740;DHT22;10530;49.968;19.844;2023-04-23T18:59:04;17.10;17.70
20740;DHT22;10530;49.968;19.844;2023-04-23T19:04:08;17.10;18.20
20740;DHT22;10530;49.968;19.844;2023-04-23T19:09:11;16.90;18.30
20740;DHT22;10530;49.968;19.844;2023-04-23T19:14:14;16.50;20.60
20740;DHT22;10530;49.968;19.844;2023-04-23T19:19:21;16.30;20.60
20740;DHT22;10530;49.968;19.844;2023-04-23T19:24:25;16.30;20.60
20740;DHT22;10530;49.968;19.844;2023-04-23T19:29:28;16.30;20.20
20740;DHT22;10530;49.968;19.844;2023-04-23T19:34:31;16.10;19.80
20740;DHT22;10530;49.968;19.844;2023-04-23T19:39:34;16.10;20.00
20740;DHT22;10530;49.968;19.844;2023-04-23T19:44:37;15.90;21.60
20740;DHT22;10530;49.968;19.844;2023-04-23T19:49:40;15.70;22.50
20740;DHT22;10530;49.968;19.844;2023-04-23T19:54:43;15.80;20.70
20740;DHT22;10530;49.968;19.844;2023-04-23T19:59:50;15.60;20.70
20740;DHT22;10530;49.968;19.844;2023-04-23T20:04:53;15.50;21.60
20740;DHT22;10530;49.968;19.844;2023-04-23T20:09:56;15.80;21.20
20740;DHT22;10530;49.968;19.844;2023-04-23T20:14:59;15.80;19.70
20740;DHT22;10530;49.968;19.844;2023-04-23T20:20:02;15.60;21.30
20740;DHT22;10530;49.968;19.844;2023-04-23T20:25:06;15.40;21.10
20740;DHT22;10530;49.968;19.844;2023-04-23T20:30:10;15.40;21.40
20740;DHT22;10530;49.968;19.844;2023-04-23T20:35:15;15.40;20.80
20740;DHT22;10530;49.968;19.844;2023-04-23T20:40:18;15.30;20.70
20740;DHT22;10530;49.968;19.844;2023-04-23T20:45:21;15.20;22.10
20740;DHT22;10530;49.968;19.844;2023-04-23T20:50:24;15.00;22.30
20740;DHT22;10530;49.968;19.844;2023-04-23T20:55:27;15.10;21.10
20740;DHT22;10530;49.968;19.844;2023-04-23T21:00:29;15.10;21.10
20740;DHT22;10530;49.968;19.844;2023-04-23T21:05:32;14.80;22.80
20740;DHT22;10530;49.968;19.844;2023-04-23T21:10:37;14.30;23.50
20740;DHT22;10530;49.968;19.844;2023-04-23T21:15:40;14.00;25.80
20740;DHT22;10530;49.968;19.844;2023-04-23T21:20:44;13.60;30.00
20740;DHT22;10530;49.968;19.844;2023-04-23T21:25:47;13.50;31.40
20740;DHT22;10530;49.968;19.844;2023-04-23T21:30:52;13.20;32.50
20740;DHT22;10530;49.968;19.844;2023-04-23T21:35:54;12.90;38.70
20740;DHT22;10530;49.968;19.844;2023-04-23T21:40:57;12.60;41.20
20740;DHT22;10530;49.968;19.844;2023-04-23T21:46:00;12.40;44.30
20740;DHT22;10530;49.968;19.844;2023-04-23T21:51:03;12.10;62.10
20740;DHT22;10530;49.968;19.844;2023-04-23T21:56:06;12.00;58.20
20740;DHT22;10530;49.968;19.844;2023-04-23T22:01:09;11.90;62.80
20740;DHT22;10530;49.968;19.844;2023-04-23T22:06:12;11.60;78.40
20740;DHT22;10530;49.968;19.844;2023-04-23T22:11:15;11.60;83.90
20740;DHT22;10530;49.968;19.844;2023-04-23T22:16:21;11.50;85.90
20740;DHT22;10530;49.968;19.844;2023-04-23T22:21:30;11.40;95.20
20740;DHT22;10530;49.968;19.844;2023-04-23T22:26:34;11.40;91.20
20740;DHT22;10530;49.968;19.844;2023-04-23T22:31:37;11.40;86.40
20740;DHT22;10530;49.968;19.844;2023-04-23T22:36:41;11.30;90.70
20740;DHT22;10530;49.968;19.844;2023-04-23T22:41:44;11.20;94.80
20740;DHT22;10530;49.968;19.844;2023-04-23T22:46:47;11.00;98.60
20740;DHT22;10530;49.968;19.844;2023-04-23T22:51:51;10.90;97.60
20740;DHT22;10530;49.968;19.844;2023-04-23T22:56:54;11.00;94.90
20740;DHT22;10530;49.968;19.844;2023-04-23T23:01:57;10.90;96.90
20740;DHT22;10530;49.968;19.844;2023-04-23T23:06:59;10.90;98.40
20740;DHT22;10530;49.968;19.844;2023-04-23T23:12:03;10.90;98.60
20740;DHT22;10530;49.968;19.844;2023-04-23T23:17:06;10.80;92.60
20740;DHT22;10530;49.968;19.844;2023-04-23T23:22:09;10.70;93.60
20740;DHT22;10530;49.968;19.844;2023-04-23T23:27:11;10.60;94.10
20740;DHT22;10530;49.968;19.844;2023-04-23T23:32:14;10.60;92.70
20740;DHT22;10530;49.968;19.844;2023-04-23T23:37:17;10.60;92.90
20740;DHT22;10530;49.968;19.844;2023-04-23T23:42:20;10.50;99.90
20740;DHT22;10530;49.968;19.844;2023-04-23T23:47:23;10.40;99.90
20740;DHT22;10530;49.968;19.844;2023-04-23T23:52:26;10.30;99.80
20740;DHT22;10530;49.968;19.844;2023-04-23T23:57:29;10.20;99.60
